sensor_id;sensor_type;location;lat;lon;timestamp;P1;durP1;ratioP1;P2;durP2;ratioP2
76393;SDS011;65216;51.090;-115.352;2023-06-04T00:02:26;6.10;;;1.80;;
76393;SDS011;65216;51.090;-115.352;2023-06-04T00:04:54;5.30;;;1.60;;
76393;SDS011;65216;51.090;-115.352;2023-06-04T00:07:21;4.80;;;1.40;;
76393;SDS011;65216;51.090;-115.352;2023-06-04T00:09:48;5.50;;;1.50;;
76393;SDS011;65216;51.090;-115.352;2023-06-04T00:12:17;9.60;;;1.60;;
76393;SDS011;65216;51.090;-115.352;2023-06-04T00:14:47;5.50;;;1.60;;
76393;SDS011;65216;51.090;-115.352;2023-06-04T00:17:16;4.10;;;1.50;;
76393;SDS011;65216;51.090;-115.352;2023-06-04T00:19:43;9.70;;;1.60;;
76393;SDS011;65216;51.090;-115.352;2023-06-04T00:22:13;6.50;;;1.60;;
76393;SDS011;65216;51.090;-115.352;2023-06-04T00:24:41;5.70;;;1.60;;
76393;SDS011;65216;51.090;-115.352;2023-06-04T00:27:10;5.70;;;1.60;;
76393;SDS011;65216;51.090;-115.352;2023-06-04T00:29:37;5.80;;;1.60;;
76393;SDS011;65216;51.090;-115.352;2023-06-04T00:32:05;11.20;;;2.20;;
76393;SDS011;65216;51.090;-115.352;2023-06-04T00:34:39;7.90;;;1.80;;
76393;SDS011;65216;51.090;-115.352;2023-06-04T00:37:36;6.90;;;1.70;;
76393;SDS011;65216;51.090;-115.352;2023-06-04T00:40:06;7.10;;;1.70;;
76393;SDS011;65216;51.090;-115.352;2023-06-04T00:42:47;9.10;;;1.70;;
76393;SDS011;65216;51.090;-115.352;2023-06-04T00:45:15;5.40;;;1.60;;
76393;SDS011;65216;51.090;-115.352;2023-06-04T00:47:45;9.30;;;2.10;;
76393;SDS011;65216;51.090;-115.352;2023-06-04T00:50:15;12.80;;;1.80;;
76393;SDS011;65216;51.090;-115.352;2023-06-04T00:52:45;6.80;;;1.60;;
76393;SDS011;65216;51.090;-115.352;2023-06-04T00:55:12;8.40;;;1.60;;
76393;SDS011;65216;51.090;-115.352;2023-06-04T00:57:39;9.10;;;2.10;;
76393;SDS011;65216;51.090;-115.352;2023-06-04T01:00:07;8.20;;;2.10;;
76393;SDS011;65216;51.090;-115.352;2023-06-04T01:02:37;9.10;;;2.00;;
76393;SDS011;65216;51.090;-115.352;2023-06-04T01:08:18;6.80;;;2.20;;
76393;SDS011;65216;51.090;-115.352;2023-06-04T01:10:52;9.50;;;1.90;;
76393;SDS011;65216;51.090;-115.352;2023-06-04T01:13:21;6.60;;;2.10;;
76393;SDS011;65216;51.090;-115.352;2023-06-04T01:15:49;9.80;;;2.10;;
76393;SDS011;65216;51.090;-115.352;2023-06-04T01:18:19;7.70;;;1.90;;
76393;SDS011;65216;51.090;-115.352;2023-06-04T01:21:08;7.90;;;2.10;;
76393;SDS011;65216;51.090;-115.352;2023-06-04T01:23:47;8.60;;;2.50;;
76393;SDS011;65216;51.090;-115.352;2023-06-04T01:26:29;4.80;;;1.70;;
76393;SDS011;65216;51.090;-115.352;2023-06-04T01:28:58;8.70;;;2.30;;
76393;SDS011;65216;51.090;-115.352;2023-06-04T01:31:28;6.80;;;2.10;;
76393;SDS011;65216;51.090;-115.352;2023-06-04T01:33:58;7.40;;;2.00;;
76393;SDS011;65216;51.090;-115.352;2023-06-04T01:36:26;7.80;;;1.80;;
76393;SDS011;65216;51.090;-115.352;2023-06-04T01:38:55;8.50;;;1.90;;
76393;SDS011;65216;51.090;-115.352;2023-06-04T01:41:26;9.20;;;2.10;;
76393;SDS011;65216;51.090;-115.352;2023-06-04T01:43:53;7.00;;;2.30;;
76393;SDS011;65216;51.090;-115.352;2023-06-04T01:46:22;8.20;;;1.90;;
76393;SDS011;65216;51.090;-115.352;2023-06-04T01:48:49;10.70;;;2.50;;
76393;SDS011;65216;51.090;-115.352;2023-06-04T01:51:17;8.50;;;2.10;;
76393;SDS011;65216;51.090;-115.352;2023-06-04T01:53:49;8.90;;;2.30;;
76393;SDS011;65216;51.090;-115.352;2023-06-04T01:56:16;9.50;;;2.30;;
76393;SDS011;65216;51.090;-115.352;2023-06-04T01:58:43;8.20;;;2.30;;
76393;SDS011;65216;51.090;-115.352;2023-06-04T02:01:10;6.20;;;2.20;;
76393;SDS011;65216;51.090;-115.352;2023-06-04T02:03:40;9.40;;;2.10;;
76393;SDS011;65216;51.090;-115.352;2023-06-04T02:06:07;6.40;;;2.10;;
76393;SDS011;65216;51.090;-115.352;2023-06-04T02:08:34;6.20;;;2.10;;
76393;SDS011;65216;51.090;-115.352;2023-06-04T02:11:02;8.50;;;2.40;;
76393;SDS011;65216;51.090;-115.352;2023-06-04T02:13:29;8.40;;;2.20;;
76393;SDS011;65216;51.090;-115.352;2023-06-04T02:16:01;8.30;;;2.50;;
76393;SDS011;65216;51.090;-115.352;2023-06-04T02:18:28;8.20;;;2.20;;
76393;SDS011;65216;51.090;-115.352;2023-06-04T02:20:56;7.00;;;2.00;;
76393;SDS011;65216;51.090;-115.352;2023-06-04T02:23:24;9.70;;;2.40;;
76393;SDS011;65216;51.090;-115.352;2023-06-04T02:25:58;5.40;;;2.10;;
76393;SDS011;65216;51.090;-115.352;2023-06-04T02:28:27;5.80;;;2.40;;
76393;SDS011;65216;51.090;-115.352;2023-06-04T02:30:57;5.80;;;2.00;;
76393;SDS011;65216;51.090;-115.352;2023-06-04T02:33:24;6.60;;;2.30;;
76393;SDS011;65216;51.090;-115.352;2023-06-04T02:35:51;6.50;;;2.30;;
76393;SDS011;65216;51.090;-115.352;2023-06-04T02:38:18;6.70;;;2.40;;
76393;SDS011;65216;51.090;-115.352;2023-06-04T02:40:46;6.60;;;2.30;;
76393;SDS011;65216;51.090;-115.352;2023-06-04T02:43:12;9.10;;;2.30;;
76393;SDS011;65216;51.090;-115.352;2023-06-04T02:45:39;5.60;;;2.20;;
76393;SDS011;65216;51.090;-115.352;2023-06-04T02:48:07;5.40;;;2.20;;
76393;SDS011;65216;51.090;-115.352;2023-06-04T02:50:37;7.10;;;2.00;;
76393;SDS011;65216;51.090;-115.352;2023-06-04T02:53:05;5.00;;;1.90;;
76393;SDS011;65216;51.090;-115.352;2023-06-04T02:55:32;4.80;;;2.10;;
76393;SDS011;65216;51.090;-115.352;2023-06-04T02:57:59;5.60;;;2.00;;
76393;SDS011;65216;51.090;-115.352;2023-06-04T03:00:26;4.40;;;2.10;;
76393;SDS011;65216;51.090;-115.352;2023-06-04T03:02:53;7.80;;;2.20;;
76393;SDS011;65216;51.090;-115.352;2023-06-04T03:05:27;9.00;;;2.60;;
76393;SDS011;65216;51.090;-115.352;2023-06-04T03:07:56;6.80;;;2.30;;
76393;SDS011;65216;51.090;-115.352;2023-06-04T03:10:24;5.30;;;2.00;;
76393;SDS011;65216;51.090;-115.352;2023-06-04T03:12:51;6.10;;;2.00;;
76393;SDS011;65216;51.090;-115.352;2023-06-04T03:15:18;5.30;;;2.00;;
76393;SDS011;65216;51.090;-115.352;2023-06-04T03:17:48;4.20;;;2.10;;
76393;SDS011;65216;51.090;-115.352;2023-06-04T03:22:45;4.50;;;2.20;;
76393;SDS011;65216;51.090;-115.352;2023-06-04T03:25:12;4.90;;;2.10;;
76393;SDS011;65216;51.090;-115.352;2023-06-04T03:27:39;3.60;;;1.90;;
76393;SDS011;65216;51.090;-115.352;2023-06-04T03:30:06;3.80;;;2.10;;
76393;SDS011;65216;51.090;-115.352;2023-06-04T03:32:35;4.40;;;2.10;;
76393;SDS011;65216;51.090;-115.352;2023-06-04T03:35:02;3.60;;;1.90;;
76393;SDS011;65216;51.090;-115.352;2023-06-04T03:37:29;4.00;;;2.00;;
76393;SDS011;65216;51.090;-115.352;2023-06-04T03:40:01;4.90;;;2.00;;
76393;SDS011;65216;51.090;-115.352;2023-06-04T03:42:31;4.10;;;2.10;;
76393;SDS011;65216;51.090;-115.352;2023-06-04T03:44:58;3.50;;;1.70;;
76393;SDS011;65216;51.090;-115.352;2023-06-04T03:47:25;4.10;;;2.40;;
76393;SDS011;65216;51.090;-115.352;2023-06-04T03:49:53;4.50;;;2.00;;
76393;SDS011;65216;51.090;-115.352;2023-06-04T03:52:20;4.10;;;1.90;;
76393;SDS011;65216;51.090;-115.352;2023-06-04T03:54:47;5.00;;;2.00;;
76393;SDS011;65216;51.090;-115.352;2023-06-04T03:57:14;3.90;;;2.00;;
76393;SDS011;65216;51.090;-115.352;2023-06-04T03:59:40;3.80;;;1.80;;
76393;SDS011;65216;51.090;-115.352;2023-06-04T04:02:08;3.40;;;1.90;;
76393;SDS011;65216;51.090;-115.352;2023-06-04T04:04:37;3.50;;;1.90;;
76393;SDS011;65216;51.090;-115.352;2023-06-04T04:07:06;3.70;;;1.80;;
76393;SDS011;65216;51.090;-115.352;2023-06-04T04:09:34;4.20;;;2.00;;
76393;SDS011;65216;51.090;-115.352;2023-06-04T04:12:04;3.60;;;1.90;;
76393;SDS011;65216;51.090;-115.352;2023-06-04T04:17:00;3.80;;;1.80;;
76393;SDS011;65216;51.090;-115.352;2023-06-04T04:19:27;4.00;;;1.90;;
76393;SDS011;65216;51.090;-115.352;2023-06-04T04:21:54;3.60;;;1.90;;
76393;SDS011;65216;51.090;-115.352;2023-06-04T04:24:26;3.70;;;1.90;;
76393;SDS011;65216;51.090;-115.352;2023-06-04T04:26:56;3.60;;;2.10;;
76393;SDS011;65216;51.090;-115.352;2023-06-04T04:29:25;3.60;;;1.90;;
76393;SDS011;65216;51.090;-115.352;2023-06-04T04:31:54;3.80;;;2.20;;
76393;SDS011;65216;51.090;-115.352;2023-06-04T04:34:30;3.90;;;2.30;;
76393;SDS011;65216;51.090;-115.352;2023-06-04T04:36:58;4.00;;;2.20;;
76393;SDS011;65216;51.090;-115.352;2023-06-04T04:39:25;4.80;;;2.60;;
76393;SDS011;65216;51.090;-115.352;2023-06-04T04:41:55;4.40;;;2.60;;
76393;SDS011;65216;51.090;-115.352;2023-06-04T04:44:22;4.10;;;2.50;;
76393;SDS011;65216;51.090;-115.352;2023-06-04T04:46:48;5.20;;;3.20;;
76393;SDS011;65216;51.090;-115.352;2023-06-04T04:49:16;4.90;;;3.00;;
76393;SDS011;65216;51.090;-115.352;2023-06-04T04:51:43;5.10;;;3.00;;
76393;SDS011;65216;51.090;-115.352;2023-06-04T04:54:10;5.70;;;3.40;;
76393;SDS011;65216;51.090;-115.352;2023-06-04T04:56:37;5.50;;;3.30;;
76393;SDS011;65216;51.090;-115.352;2023-06-04T04:59:06;6.30;;;3.60;;
76393;SDS011;65216;51.090;-115.352;2023-06-04T05:01:36;5.60;;;3.50;;
76393;SDS011;65216;51.090;-115.352;2023-06-04T05:04:03;4.70;;;3.30;;
76393;SDS011;65216;51.090;-115.352;2023-06-04T05:06:29;5.80;;;3.20;;
76393;SDS011;65216;51.090;-115.352;2023-06-04T05:08:56;7.10;;;3.50;;
76393;SDS011;65216;51.090;-115.352;2023-06-04T05:11:23;5.70;;;3.50;;
76393;SDS011;65216;51.090;-115.352;2023-06-04T05:13:51;5.40;;;3.40;;
76393;SDS011;65216;51.090;-115.352;2023-06-04T05:16:18;9.70;;;3.70;;
76393;SDS011;65216;51.090;-115.352;2023-06-04T05:18:46;7.30;;;3.50;;
76393;SDS011;65216;51.090;-115.352;2023-06-04T05:21:13;6.70;;;3.80;;
76393;SDS011;65216;51.090;-115.352;2023-06-04T05:23:40;9.00;;;3.70;;
76393;SDS011;65216;51.090;-115.352;2023-06-04T05:26:08;7.60;;;4.50;;
76393;SDS011;65216;51.090;-115.352;2023-06-04T05:28:38;5.70;;;3.70;;
76393;SDS011;65216;51.090;-115.352;2023-06-04T05:31:10;7.60;;;3.80;;
76393;SDS011;65216;51.090;-115.352;2023-06-04T05:33:39;7.90;;;4.00;;
76393;SDS011;65216;51.090;-115.352;2023-06-04T05:36:05;6.40;;;3.90;;
76393;SDS011;65216;51.090;-115.352;2023-06-04T05:38:33;7.10;;;4.20;;
76393;SDS011;65216;51.090;-115.352;2023-06-04T05:41:03;6.40;;;3.90;;
76393;SDS011;65216;51.090;-115.352;2023-06-04T05:43:33;7.60;;;3.80;;
76393;SDS011;65216;51.090;-115.352;2023-06-04T05:46:00;8.90;;;4.10;;
76393;SDS011;65216;51.090;-115.352;2023-06-04T05:48:27;8.00;;;4.00;;
76393;SDS011;65216;51.090;-115.352;2023-06-04T05:50:54;8.40;;;4.40;;
76393;SDS011;65216;51.090;-115.352;2023-06-04T05:53:24;7.80;;;4.20;;
76393;SDS011;65216;51.090;-115.352;2023-06-04T05:55:51;8.10;;;4.30;;
76393;SDS011;65216;51.090;-115.352;2023-06-04T05:58:18;7.70;;;4.00;;
76393;SDS011;65216;51.090;-115.352;2023-06-04T06:00:45;9.10;;;4.60;;
76393;SDS011;65216;51.090;-115.352;2023-06-04T06:03:12;8.80;;;4.30;;
76393;SDS011;65216;51.090;-115.352;2023-06-04T06:05:43;8.00;;;4.40;;
76393;SDS011;65216;51.090;-115.352;2023-06-04T06:08:10;7.60;;;3.90;;
76393;SDS011;65216;51.090;-115.352;2023-06-04T06:10:40;6.60;;;3.80;;
76393;SDS011;65216;51.090;-115.352;2023-06-04T06:13:08;7.50;;;3.90;;
76393;SDS011;65216;51.090;-115.352;2023-06-04T06:15:37;6.70;;;3.70;;
76393;SDS011;65216;51.090;-115.352;2023-06-04T06:18:05;7.50;;;4.20;;
76393;SDS011;65216;51.090;-115.352;2023-06-04T06:20:32;6.70;;;3.90;;
76393;SDS011;65216;51.090;-115.352;2023-06-04T06:23:06;7.10;;;3.60;;
76393;SDS011;65216;51.090;-115.352;2023-06-04T06:25:33;6.50;;;3.90;;
76393;SDS011;65216;51.090;-115.352;2023-06-04T06:28:00;6.90;;;3.70;;
76393;SDS011;65216;51.090;-115.352;2023-06-04T06:30:27;6.10;;;3.40;;
76393;SDS011;65216;51.090;-115.352;2023-06-04T06:32:54;6.30;;;3.50;;
76393;SDS011;65216;51.090;-115.352;2023-06-04T06:35:23;5.80;;;3.40;;
76393;SDS011;65216;51.090;-115.352;2023-06-04T06:37:50;6.40;;;3.40;;
76393;SDS011;65216;51.090;-115.352;2023-06-04T06:40:18;6.50;;;3.70;;
76393;SDS011;65216;51.090;-115.352;2023-06-04T06:42:49;6.10;;;4.00;;
76393;SDS011;65216;51.090;-115.352;2023-06-04T06:45:18;6.10;;;3.70;;
76393;SDS011;65216;51.090;-115.352;2023-06-04T06:47:45;6.30;;;4.00;;
76393;SDS011;65216;51.090;-115.352;2023-06-04T06:50:15;5.70;;;3.20;;
76393;SDS011;65216;51.090;-115.352;2023-06-04T06:52:42;5.50;;;3.30;;
76393;SDS011;65216;51.090;-115.352;2023-06-04T06:55:12;5.20;;;3.40;;
76393;SDS011;65216;51.090;-115.352;2023-06-04T06:57:38;6.30;;;3.70;;
76393;SDS011;65216;51.090;-115.352;2023-06-04T07:00:06;5.70;;;3.70;;
76393;SDS011;65216;51.090;-115.352;2023-06-04T07:02:34;7.50;;;4.20;;
76393;SDS011;65216;51.090;-115.352;2023-06-04T07:05:01;6.20;;;3.90;;
76393;SDS011;65216;51.090;-115.352;2023-06-04T07:07:28;6.60;;;4.00;;
76393;SDS011;65216;51.090;-115.352;2023-06-04T07:09:54;6.60;;;4.20;;
76393;SDS011;65216;51.090;-115.352;2023-06-04T07:12:22;7.00;;;4.10;;
76393;SDS011;65216;51.090;-115.352;2023-06-04T07:14:51;6.60;;;4.10;;
76393;SDS011;65216;51.090;-115.352;2023-06-04T07:17:18;6.10;;;4.00;;
76393;SDS011;65216;51.090;-115.352;2023-06-04T07:19:47;5.90;;;4.00;;
76393;SDS011;65216;51.090;-115.352;2023-06-04T07:22:14;6.70;;;4.20;;
76393;SDS011;65216;51.090;-115.352;2023-06-04T07:24:44;6.90;;;4.40;;
76393;SDS011;65216;51.090;-115.352;2023-06-04T07:27:14;6.70;;;4.10;;
76393;SDS011;65216;51.090;-115.352;2023-06-04T07:29:43;7.80;;;4.10;;
76393;SDS011;65216;51.090;-115.352;2023-06-04T07:32:11;6.90;;;4.00;;
76393;SDS011;65216;51.090;-115.352;2023-06-04T07:34:39;5.60;;;3.50;;
76393;SDS011;65216;51.090;-115.352;2023-06-04T07:37:05;6.40;;;4.30;;
76393;SDS011;65216;51.090;-115.352;2023-06-04T07:39:33;7.70;;;3.80;;
76393;SDS011;65216;51.090;-115.352;2023-06-04T07:42:00;7.50;;;4.20;;
76393;SDS011;65216;51.090;-115.352;2023-06-04T07:44:27;7.30;;;4.60;;
76393;SDS011;65216;51.090;-115.352;2023-06-04T07:46:54;6.40;;;4.10;;
76393;SDS011;65216;51.090;-115.352;2023-06-04T07:49:21;6.90;;;4.20;;
76393;SDS011;65216;51.090;-115.352;2023-06-04T07:51:48;6.70;;;3.70;;
76393;SDS011;65216;51.090;-115.352;2023-06-04T07:54:15;6.50;;;4.10;;
76393;SDS011;65216;51.090;-115.352;2023-06-04T07:56:42;6.90;;;4.30;;
76393;SDS011;65216;51.090;-115.352;2023-06-04T07:59:10;6.80;;;4.00;;
76393;SDS011;65216;51.090;-115.352;2023-06-04T08:01:37;6.60;;;4.20;;
76393;SDS011;65216;51.090;-115.352;2023-06-04T08:04:04;6.40;;;3.90;;
76393;SDS011;65216;51.090;-115.352;2023-06-04T08:06:31;7.10;;;4.20;;
76393;SDS011;65216;51.090;-115.352;2023-06-04T08:08:59;6.80;;;4.10;;
76393;SDS011;65216;51.090;-115.352;2023-06-04T08:11:26;6.70;;;3.80;;
76393;SDS011;65216;51.090;-115.352;2023-06-04T08:13:53;6.60;;;4.10;;
76393;SDS011;65216;51.090;-115.352;2023-06-04T08:16:26;6.50;;;3.90;;
76393;SDS011;65216;51.090;-115.352;2023-06-04T08:18:52;5.10;;;3.50;;
76393;SDS011;65216;51.090;-115.352;2023-06-04T08:21:27;6.50;;;3.80;;
76393;SDS011;65216;51.090;-115.352;2023-06-04T08:23:55;5.50;;;3.40;;
76393;SDS011;65216;51.090;-115.352;2023-06-04T08:26:22;6.50;;;4.30;;
76393;SDS011;65216;51.090;-115.352;2023-06-04T08:28:50;5.50;;;3.80;;
76393;SDS011;65216;51.090;-115.352;2023-06-04T08:31:17;6.20;;;3.90;;
76393;SDS011;65216;51.090;-115.352;2023-06-04T08:33:48;5.70;;;3.90;;
76393;SDS011;65216;51.090;-115.352;2023-06-04T08:36:15;6.20;;;3.70;;
76393;SDS011;65216;51.090;-115.352;2023-06-04T08:38:42;5.80;;;4.00;;
76393;SDS011;65216;51.090;-115.352;2023-06-04T08:41:16;6.30;;;3.90;;
76393;SDS011;65216;51.090;-115.352;2023-06-04T08:43:48;6.00;;;4.00;;
76393;SDS011;65216;51.090;-115.352;2023-06-04T08:46:19;5.60;;;3.60;;
76393;SDS011;65216;51.090;-115.352;2023-06-04T08:48:50;7.30;;;4.10;;
76393;SDS011;65216;51.090;-115.352;2023-06-04T08:51:18;5.70;;;3.60;;
76393;SDS011;65216;51.090;-115.352;2023-06-04T08:53:45;6.30;;;4.10;;
76393;SDS011;65216;51.090;-115.352;2023-06-04T08:56:16;7.00;;;4.10;;
76393;SDS011;65216;51.090;-115.352;2023-06-04T08:58:47;6.40;;;3.80;;
76393;SDS011;65216;51.090;-115.352;2023-06-04T09:01:15;6.50;;;4.10;;
76393;SDS011;65216;51.090;-115.352;2023-06-04T09:03:44;5.70;;;3.60;;
76393;SDS011;65216;51.090;-115.352;2023-06-04T09:06:12;6.70;;;3.80;;
76393;SDS011;65216;51.090;-115.352;2023-06-04T09:08:43;6.30;;;3.50;;
76393;SDS011;65216;51.090;-115.352;2023-06-04T09:11:14;5.30;;;3.70;;
76393;SDS011;65216;51.090;-115.352;2023-06-04T09:13:43;6.30;;;3.80;;
76393;SDS011;65216;51.090;-115.352;2023-06-04T09:16:14;5.80;;;3.70;;
76393;SDS011;65216;51.090;-115.352;2023-06-04T09:18:41;5.50;;;3.40;;
76393;SDS011;65216;51.090;-115.352;2023-06-04T09:21:09;5.80;;;3.50;;
76393;SDS011;65216;51.090;-115.352;2023-06-04T09:23:46;6.30;;;3.80;;
76393;SDS011;65216;51.090;-115.352;2023-06-04T09:26:14;6.00;;;3.80;;
76393;SDS011;65216;51.090;-115.352;2023-06-04T09:28:42;6.70;;;3.90;;
76393;SDS011;65216;51.090;-115.352;2023-06-04T09:31:16;6.60;;;4.30;;
76393;SDS011;65216;51.090;-115.352;2023-06-04T09:33:44;6.20;;;3.50;;
76393;SDS011;65216;51.090;-115.352;2023-06-04T09:36:12;6.10;;;3.90;;
76393;SDS011;65216;51.090;-115.352;2023-06-04T09:38:43;5.70;;;4.00;;
76393;SDS011;65216;51.090;-115.352;2023-06-04T09:41:15;5.60;;;4.00;;
76393;SDS011;65216;51.090;-115.352;2023-06-04T09:43:45;5.80;;;3.60;;
76393;SDS011;65216;51.090;-115.352;2023-06-04T09:46:17;5.90;;;4.10;;
76393;SDS011;65216;51.090;-115.352;2023-06-04T09:48:58;5.80;;;3.70;;
76393;SDS011;65216;51.090;-115.352;2023-06-04T09:51:30;6.30;;;3.80;;
76393;SDS011;65216;51.090;-115.352;2023-06-04T09:53:59;6.00;;;3.70;;
76393;SDS011;65216;51.090;-115.352;2023-06-04T09:56:28;6.00;;;4.00;;
76393;SDS011;65216;51.090;-115.352;2023-06-04T09:59:04;6.10;;;4.20;;
76393;SDS011;65216;51.090;-115.352;2023-06-04T10:01:33;6.30;;;4.00;;
76393;SDS011;65216;51.090;-115.352;2023-06-04T10:04:07;6.70;;;4.20;;
76393;SDS011;65216;51.090;-115.352;2023-06-04T10:06:39;5.90;;;4.00;;
76393;SDS011;65216;51.090;-115.352;2023-06-04T10:09:07;5.90;;;4.10;;
76393;SDS011;65216;51.090;-115.352;2023-06-04T10:11:40;5.80;;;3.60;;
76393;SDS011;65216;51.090;-115.352;2023-06-04T10:14:19;5.20;;;3.70;;
76393;SDS011;65216;51.090;-115.352;2023-06-04T10:19:20;6.10;;;3.60;;
76393;SDS011;65216;51.090;-115.352;2023-06-04T10:21:47;5.80;;;3.70;;
76393;SDS011;65216;51.090;-115.352;2023-06-04T10:24:16;6.30;;;4.00;;
76393;SDS011;65216;51.090;-115.352;2023-06-04T10:26:45;5.80;;;3.90;;
76393;SDS011;65216;51.090;-115.352;2023-06-04T10:29:14;6.50;;;4.60;;
76393;SDS011;65216;51.090;-115.352;2023-06-04T10:31:43;6.50;;;3.80;;
76393;SDS011;65216;51.090;-115.352;2023-06-04T10:34:11;5.90;;;3.70;;
76393;SDS011;65216;51.090;-115.352;2023-06-04T10:36:46;6.30;;;3.90;;
76393;SDS011;65216;51.090;-115.352;2023-06-04T10:39:13;6.10;;;3.50;;
76393;SDS011;65216;51.090;-115.352;2023-06-04T10:41:59;6.00;;;4.10;;
76393;SDS011;65216;51.090;-115.352;2023-06-04T10:44:47;6.20;;;3.90;;
76393;SDS011;65216;51.090;-115.352;2023-06-04T10:47:33;6.10;;;4.20;;
76393;SDS011;65216;51.090;-115.352;2023-06-04T10:50:10;6.00;;;4.10;;
76393;SDS011;65216;51.090;-115.352;2023-06-04T10:52:53;6.30;;;3.90;;
76393;SDS011;65216;51.090;-115.352;2023-06-04T10:55:23;6.20;;;4.20;;
76393;SDS011;65216;51.090;-115.352;2023-06-04T10:57:57;6.00;;;4.20;;
76393;SDS011;65216;51.090;-115.352;2023-06-04T11:00:42;5.70;;;3.30;;
76393;SDS011;65216;51.090;-115.352;2023-06-04T11:05:46;5.80;;;3.60;;
76393;SDS011;65216;51.090;-115.352;2023-06-04T11:08:26;6.00;;;3.40;;
76393;SDS011;65216;51.090;-115.352;2023-06-04T11:10:58;5.80;;;3.40;;
76393;SDS011;65216;51.090;-115.352;2023-06-04T11:13:25;5.70;;;3.60;;
76393;SDS011;65216;51.090;-115.352;2023-06-04T11:15:52;6.20;;;3.70;;
76393;SDS011;65216;51.090;-115.352;2023-06-04T11:18:21;6.10;;;3.90;;
76393;SDS011;65216;51.090;-115.352;2023-06-04T11:20:58;6.00;;;3.60;;
76393;SDS011;65216;51.090;-115.352;2023-06-04T11:23:27;6.10;;;3.50;;
76393;SDS011;65216;51.090;-115.352;2023-06-04T11:25:58;6.20;;;3.70;;
76393;SDS011;65216;51.090;-115.352;2023-06-04T11:28:27;6.20;;;4.00;;
76393;SDS011;65216;51.090;-115.352;2023-06-04T11:31:00;5.60;;;3.70;;
76393;SDS011;65216;51.090;-115.352;2023-06-04T11:33:41;5.80;;;3.50;;
76393;SDS011;65216;51.090;-115.352;2023-06-04T11:36:29;5.80;;;3.60;;
76393;SDS011;65216;51.090;-115.352;2023-06-04T11:38:59;5.60;;;3.80;;
76393;SDS011;65216;51.090;-115.352;2023-06-04T11:41:33;5.40;;;3.50;;
76393;SDS011;65216;51.090;-115.352;2023-06-04T11:44:05;7.00;;;4.20;;
76393;SDS011;65216;51.090;-115.352;2023-06-04T11:46:33;5.30;;;3.30;;
76393;SDS011;65216;51.090;-115.352;2023-06-04T11:49:02;5.60;;;3.60;;
76393;SDS011;65216;51.090;-115.352;2023-06-04T11:51:30;5.80;;;3.70;;
76393;SDS011;65216;51.090;-115.352;2023-06-04T11:53:57;5.00;;;3.10;;
76393;SDS011;65216;51.090;-115.352;2023-06-04T11:56:25;5.90;;;3.60;;
76393;SDS011;65216;51.090;-115.352;2023-06-04T11:58:54;5.90;;;3.30;;
76393;SDS011;65216;51.090;-115.352;2023-06-04T12:01:21;6.30;;;3.70;;
76393;SDS011;65216;51.090;-115.352;2023-06-04T12:03:49;5.80;;;3.50;;
76393;SDS011;65216;51.090;-115.352;2023-06-04T12:06:17;5.80;;;3.60;;
76393;SDS011;65216;51.090;-115.352;2023-06-04T12:08:50;5.80;;;3.50;;
76393;SDS011;65216;51.090;-115.352;2023-06-04T12:14:05;6.50;;;3.30;;
76393;SDS011;65216;51.090;-115.352;2023-06-04T12:16:35;5.80;;;3.70;;
76393;SDS011;65216;51.090;-115.352;2023-06-04T12:19:12;5.50;;;3.60;;
76393;SDS011;65216;51.090;-115.352;2023-06-04T12:21:39;6.90;;;3.70;;
76393;SDS011;65216;51.090;-115.352;2023-06-04T12:24:14;5.10;;;3.30;;
76393;SDS011;65216;51.090;-115.352;2023-06-04T12:26:44;5.50;;;3.50;;
76393;SDS011;65216;51.090;-115.352;2023-06-04T12:29:13;5.30;;;3.10;;
76393;SDS011;65216;51.090;-115.352;2023-06-04T12:31:42;6.10;;;3.20;;
76393;SDS011;65216;51.090;-115.352;2023-06-04T12:34:14;5.50;;;3.30;;
76393;SDS011;65216;51.090;-115.352;2023-06-04T12:36:43;5.10;;;3.30;;
76393;SDS011;65216;51.090;-115.352;2023-06-04T12:39:10;5.00;;;3.20;;
76393;SDS011;65216;51.090;-115.352;2023-06-04T12:41:37;5.60;;;3.40;;
76393;SDS011;65216;51.090;-115.352;2023-06-04T12:44:04;5.30;;;3.40;;
76393;SDS011;65216;51.090;-115.352;2023-06-04T12:46:33;5.30;;;3.10;;
76393;SDS011;65216;51.090;-115.352;2023-06-04T12:49:00;5.10;;;3.10;;
76393;SDS011;65216;51.090;-115.352;2023-06-04T12:51:27;4.90;;;3.20;;
76393;SDS011;65216;51.090;-115.352;2023-06-04T12:53:54;5.50;;;3.50;;
76393;SDS011;65216;51.090;-115.352;2023-06-04T12:56:21;6.20;;;3.40;;
76393;SDS011;65216;51.090;-115.352;2023-06-04T12:58:48;4.80;;;2.90;;
76393;SDS011;65216;51.090;-115.352;2023-06-04T13:01:15;5.30;;;3.50;;
76393;SDS011;65216;51.090;-115.352;2023-06-04T13:03:42;5.20;;;3.10;;
76393;SDS011;65216;51.090;-115.352;2023-06-04T13:06:09;5.40;;;3.20;;
76393;SDS011;65216;51.090;-115.352;2023-06-04T13:08:37;4.90;;;3.20;;
76393;SDS011;65216;51.090;-115.352;2023-06-04T13:11:04;4.90;;;2.90;;
76393;SDS011;65216;51.090;-115.352;2023-06-04T13:13:31;5.30;;;3.20;;
76393;SDS011;65216;51.090;-115.352;2023-06-04T13:15:58;5.40;;;3.00;;
76393;SDS011;65216;51.090;-115.352;2023-06-04T13:18:26;4.70;;;2.90;;
76393;SDS011;65216;51.090;-115.352;2023-06-04T13:20:53;4.90;;;3.20;;
76393;SDS011;65216;51.090;-115.352;2023-06-04T13:23:20;4.40;;;2.80;;
76393;SDS011;65216;51.090;-115.352;2023-06-04T13:25:50;5.10;;;3.00;;
76393;SDS011;65216;51.090;-115.352;2023-06-04T13:28:17;4.50;;;2.60;;
76393;SDS011;65216;51.090;-115.352;2023-06-04T13:30:44;5.20;;;3.30;;
76393;SDS011;65216;51.090;-115.352;2023-06-04T13:33:11;5.70;;;3.50;;
76393;SDS011;65216;51.090;-115.352;2023-06-04T13:35:38;5.00;;;3.20;;
76393;SDS011;65216;51.090;-115.352;2023-06-04T13:38:05;5.60;;;3.40;;
76393;SDS011;65216;51.090;-115.352;2023-06-04T13:40:36;5.10;;;3.00;;
76393;SDS011;65216;51.090;-115.352;2023-06-04T13:45:35;4.80;;;3.10;;
76393;SDS011;65216;51.090;-115.352;2023-06-04T13:48:02;5.70;;;3.30;;
76393;SDS011;65216;51.090;-115.352;2023-06-04T13:50:33;5.60;;;3.20;;
76393;SDS011;65216;51.090;-115.352;2023-06-04T13:53:01;4.70;;;2.90;;
76393;SDS011;65216;51.090;-115.352;2023-06-04T13:55:33;6.00;;;3.60;;
76393;SDS011;65216;51.090;-115.352;2023-06-04T13:58:00;5.10;;;3.00;;
76393;SDS011;65216;51.090;-115.352;2023-06-04T14:00:27;6.00;;;3.90;;
76393;SDS011;65216;51.090;-115.352;2023-06-04T14:02:58;5.10;;;3.40;;
76393;SDS011;65216;51.090;-115.352;2023-06-04T14:05:25;5.10;;;3.10;;
76393;SDS011;65216;51.090;-115.352;2023-06-04T14:07:55;5.50;;;3.30;;
76393;SDS011;65216;51.090;-115.352;2023-06-04T14:10:23;5.50;;;3.50;;
76393;SDS011;65216;51.090;-115.352;2023-06-04T14:12:53;4.40;;;2.90;;
76393;SDS011;65216;51.090;-115.352;2023-06-04T14:15:20;5.00;;;3.10;;
76393;SDS011;65216;51.090;-115.352;2023-06-04T14:17:48;6.30;;;2.80;;
76393;SDS011;65216;51.090;-115.352;2023-06-04T14:20:18;5.20;;;3.10;;
76393;SDS011;65216;51.090;-115.352;2023-06-04T14:22:47;6.00;;;3.10;;
76393;SDS011;65216;51.090;-115.352;2023-06-04T14:25:14;5.00;;;3.00;;
76393;SDS011;65216;51.090;-115.352;2023-06-04T14:27:41;6.00;;;3.40;;
76393;SDS011;65216;51.090;-115.352;2023-06-04T14:30:10;7.00;;;3.50;;
76393;SDS011;65216;51.090;-115.352;2023-06-04T14:32:37;5.40;;;3.10;;
76393;SDS011;65216;51.090;-115.352;2023-06-04T14:35:06;4.70;;;3.10;;
76393;SDS011;65216;51.090;-115.352;2023-06-04T14:37:34;6.00;;;3.10;;
76393;SDS011;65216;51.090;-115.352;2023-06-04T14:40:00;5.20;;;3.10;;